Terminal Aerodrome Forecast
Issued by NWS

Home | Current Version | Previous Version | Text Only | Print | Product List | Glossary On
Versions: 1 2 3 4 5 6 7 8 9 10 11 12 13 14 15 16 17 18 19
612
FTUS46 KSEW 182340
TAFBFI
TAF
KBFI 182340Z 1900/1924 VRB05KT P6SM SCT030 SCT200
      TEMPO 1900/1904 29008KT BKN030 BKN070
     FM190400 30010KT P6SM BKN035
     FM191100 VRB03KT P6SM OVC014
     FM191800 29005KT P6SM SCT035=

USA.gov is the U.S. government's official web portal to all federal, state and local government web resources and services.